Time,TemperatureF,DewpointF,PressureIn,WindDirection,WindDirectionDegrees,WindSpeedMPH,WindSpeedGustMPH,Humidity,HourlyPrecipIn,Conditions,Clouds,dailyrainin,SolarRadiationWatts/m^2,SoftwareType,DateUTC
2013-07-05 00:14:00,67.0,66.0,30.07,East,96,0.0,0.0,95,0.00,,,0.00,0,weatherlink.com 1.10,2013-07-05 04:14:00,
2013-07-05 00:29:00,67.0,66.0,30.07,East,96,0.0,0.0,95,0.00,,,0.00,0,weatherlink.com 1.10,2013-07-05 04:29:00,
2013-07-05 00:44:00,67.0,66.0,30.07,East,96,0.0,1.0,95,0.00,,,0.00,0,weatherlink.com 1.10,2013-07-05 04:44:00,
2013-07-05 00:59:00,66.7,65.0,30.07,East,96,0.0,0.0,95,0.00,,,0.00,0,weatherlink.com 1.10,2013-07-05 04:59:00,
2013-07-05 01:14:00,66.5,65.0,30.07,East,96,0.0,0.0,95,0.00,,,0.00,0,weatherlink.com 1.10,2013-07-05 05:14:00,
2013-07-05 01:29:00,66.3,65.0,30.07,East,96,0.0,0.0,95,0.00,,,0.00,0,weatherlink.com 1.10,2013-07-05 05:29:00,
2013-07-05 01:44:00,66.3,65.0,30.07,ESE,121,0.0,0.0,95,0.00,,,0.00,0,weatherlink.com 1.10,2013-07-05 05:44:00,
2013-07-05 01:59:00,66.3,65.0,30.07,SSE,167,0.0,2.0,95,0.00,,,0.00,0,weatherlink.com 1.10,2013-07-05 05:59:00,
2013-07-05 02:14:00,66.1,65.0,30.07,SSE,167,0.0,0.0,95,0.00,,,0.00,0,weatherlink.com 1.10,2013-07-05 06:14:00,
2013-07-05 02:29:00,65.9,65.0,30.07,SSE,167,0.0,0.0,95,0.00,,,0.00,0,weatherlink.com 1.10,2013-07-05 06:29:00,
2013-07-05 02:44:00,65.4,64.0,30.06,SSE,167,0.0,0.0,95,0.00,,,0.00,0,weatherlink.com 1.10,2013-07-05 06:44:00,
2013-07-05 02:59:00,65.1,64.0,30.06,SSE,167,0.0,0.0,95,0.00,,,0.00,0,weatherlink.com 1.10,2013-07-05 06:59:00,
2013-07-05 03:14:00,64.8,63.0,30.06,SSE,167,0.0,0.0,95,0.00,,,0.00,0,weatherlink.com 1.10,2013-07-05 07:14:00,
2013-07-05 03:29:00,64.5,63.0,30.06,SSE,167,0.0,0.0,95,0.00,,,0.00,0,weatherlink.com 1.10,2013-07-05 07:29:00,
2013-07-05 03:44:00,64.3,63.0,30.05,SSE,167,0.0,0.0,95,0.00,,,0.00,0,weatherlink.com 1.10,2013-07-05 07:44:00,
2013-07-05 03:59:00,64.1,63.0,30.04,SSE,167,0.0,0.0,95,0.00,,,0.00,0,weatherlink.com 1.10,2013-07-05 07:59:00,
2013-07-05 04:14:00,63.8,62.0,30.04,SSE,167,0.0,0.0,95,0.00,,,0.00,0,weatherlink.com 1.10,2013-07-05 08:14:00,
2013-07-05 04:29:00,63.6,63.0,30.05,SSE,167,0.0,0.0,96,0.00,,,0.00,0,weatherlink.com 1.10,2013-07-05 08:29:00,
2013-07-05 04:44:00,63.4,62.0,30.04,SSE,167,0.0,0.0,95,0.00,,,0.00,0,weatherlink.com 1.10,2013-07-05 08:44:00,
2013-07-05 04:59:00,63.2,62.0,30.04,SSE,167,0.0,0.0,96,0.00,,,0.00,0,weatherlink.com 1.10,2013-07-05 08:59:00,
2013-07-05 05:14:00,62.9,62.0,30.05,SSE,167,0.0,0.0,95,0.00,,,0.00,0,weatherlink.com 1.10,2013-07-05 09:14:00,
2013-07-05 05:29:00,62.7,62.0,30.05,SSE,167,0.0,0.0,96,0.00,,,0.00,0,weatherlink.com 1.10,2013-07-05 09:29:00,
2013-07-05 05:44:00,62.9,62.0,30.06,SSE,167,0.0,0.0,96,0.00,,,0.00,0,weatherlink.com 1.10,2013-07-05 09:44:00,
2013-07-05 06:00:00,62.7,62.0,30.06,SSE,167,0.0,0.0,96,0.00,,,0.00,0,weatherlink.com 1.10,2013-07-05 10:00:00,
2013-07-05 06:14:00,62.7,62.0,30.06,SSE,167,0.0,0.0,96,0.00,,,0.00,0,weatherlink.com 1.10,2013-07-05 10:14:00,
2013-07-05 06:29:00,62.8,62.0,30.07,SSE,167,0.0,0.0,96,0.00,,,0.00,0,weatherlink.com 1.10,2013-07-05 10:29:00,
2013-07-05 06:44:00,62.7,62.0,30.07,SSE,167,0.0,0.0,96,0.00,,,0.00,12,weatherlink.com 1.10,2013-07-05 10:44:00,
2013-07-05 07:14:00,63.2,62.0,30.07,SSE,167,0.0,0.0,96,0.00,,,0.00,47,weatherlink.com 1.10,2013-07-05 11:14:00,
2013-07-05 07:29:00,63.9,63.0,30.07,South,171,0.0,0.0,96,0.00,,,0.00,91,weatherlink.com 1.10,2013-07-05 11:29:00,
2013-07-05 08:15:00,65.1,64.0,30.08,SSW,202,0.0,0.0,96,0.00,,,0.00,134,weatherlink.com 1.10,2013-07-05 12:15:00,
2013-07-05 08:30:00,65.4,64.0,30.08,SSW,202,0.0,0.0,96,0.00,,,0.00,123,weatherlink.com 1.10,2013-07-05 12:30:00,
2013-07-05 08:45:00,65.4,64.0,30.09,West,265,0.0,0.0,96,0.00,,,0.00,100,weatherlink.com 1.10,2013-07-05 12:45:00,
2013-07-05 09:00:00,65.7,65.0,30.09,West,265,0.0,0.0,96,0.00,,,0.00,100,weatherlink.com 1.10,2013-07-05 13:00:00,
2013-07-05 09:15:00,65.9,65.0,30.10,West,265,0.0,0.0,96,0.00,,,0.00,390,weatherlink.com 1.10,2013-07-05 13:15:00,
2013-07-05 09:30:00,66.8,66.0,30.10,NE,50,0.0,2.0,96,0.00,,,0.00,385,weatherlink.com 1.10,2013-07-05 13:30:00,
2013-07-05 09:45:00,67.2,66.0,30.11,SSE,153,0.0,1.0,94,0.00,,,0.00,230,weatherlink.com 1.10,2013-07-05 13:45:00,
2013-07-05 10:00:00,68.3,66.0,30.10,SW,233,0.0,2.0,93,0.00,,,0.00,578,weatherlink.com 1.10,2013-07-05 14:00:00,
2013-07-05 10:15:00,69.2,67.0,30.10,SSW,213,0.0,1.0,91,0.00,,,0.00,197,weatherlink.com 1.10,2013-07-05 14:15:00,
2013-07-05 10:30:00,69.9,66.0,30.11,SSW,213,0.0,1.0,87,0.00,,,0.00,343,weatherlink.com 1.10,2013-07-05 14:30:00,
2013-07-05 11:00:00,71.3,66.0,30.11,SW,217,0.0,2.0,83,0.00,,,0.00,636,weatherlink.com 1.10,2013-07-05 15:00:00,
2013-07-05 11:15:00,72.7,66.0,30.11,WSW,254,0.0,4.0,78,0.00,,,0.00,1083,weatherlink.com 1.10,2013-07-05 15:15:00,
2013-07-05 11:30:00,73.3,66.0,30.11,WSW,254,0.0,2.0,79,0.00,,,0.00,517,weatherlink.com 1.10,2013-07-05 15:30:00,
2013-07-05 11:45:00,73.0,67.0,30.11,WSW,254,0.0,4.0,81,0.00,,,0.00,278,weatherlink.com 1.10,2013-07-05 15:45:00,
2013-07-05 12:00:00,73.9,67.0,30.11,WSW,253,0.0,2.0,80,0.00,,,0.00,1136,weatherlink.com 1.10,2013-07-05 16:00:00,
2013-07-05 12:15:00,74.0,67.0,30.11,WSW,253,0.0,1.0,78,0.00,,,0.00,274,weatherlink.com 1.10,2013-07-05 16:15:00,
2013-07-05 12:30:00,74.4,69.0,30.11,WSW,253,0.0,0.0,82,0.00,,,0.00,394,weatherlink.com 1.10,2013-07-05 16:30:00,
2013-07-05 12:45:00,74.7,67.0,30.10,SSW,194,0.0,4.0,77,0.00,,,0.00,397,weatherlink.com 1.10,2013-07-05 16:45:00,
2013-07-05 13:00:00,75.7,68.0,30.09,SW,219,0.0,2.0,77,0.00,,,0.00,1150,weatherlink.com 1.10,2013-07-05 17:00:00,
2013-07-05 13:15:00,77.1,67.0,30.09,ENE,64,0.0,4.0,72,0.00,,,0.00,1164,weatherlink.com 1.10,2013-07-05 17:15:00,
2013-07-05 13:30:00,76.7,67.0,30.09,SSE,150,0.0,0.0,73,0.00,,,0.00,359,weatherlink.com 1.10,2013-07-05 17:30:00,
2013-07-05 13:45:00,77.2,68.0,30.09,WSW,248,0.0,2.0,74,0.00,,,0.00,367,weatherlink.com 1.10,2013-07-05 17:45:00,
2013-07-05 14:00:00,76.9,68.0,30.09,WSW,254,0.0,0.0,73,0.00,,,0.00,229,weatherlink.com 1.10,2013-07-05 18:00:00,
2013-07-05 14:15:00,76.5,68.0,30.09,WSW,254,0.0,0.0,75,0.00,,,0.00,148,weatherlink.com 1.10,2013-07-05 18:15:00,
2013-07-05 14:30:00,76.5,68.0,30.09,WSW,254,0.0,0.0,74,0.00,,,0.00,494,weatherlink.com 1.10,2013-07-05 18:30:00,
2013-07-05 14:45:00,78.0,69.0,30.08,WSW,254,0.0,1.0,73,0.00,,,0.00,397,weatherlink.com 1.10,2013-07-05 18:45:00,
2013-07-05 15:00:00,77.3,68.0,30.08,WSW,251,0.0,1.0,74,0.00,,,0.00,193,weatherlink.com 1.10,2013-07-05 19:00:00,
2013-07-05 15:15:00,76.4,68.0,30.08,SSW,207,0.0,1.0,75,0.00,,,0.00,237,weatherlink.com 1.10,2013-07-05 19:15:00,
2013-07-05 15:30:00,76.7,68.0,30.07,SSW,207,0.0,0.0,75,0.00,,,0.00,443,weatherlink.com 1.10,2013-07-05 19:30:00,
2013-07-05 15:45:00,78.5,69.0,30.07,WSW,242,0.0,5.0,73,0.00,,,0.00,1049,weatherlink.com 1.10,2013-07-05 19:45:00,
2013-07-05 16:00:00,78.7,68.0,30.07,SW,232,1.0,5.0,70,0.00,,,0.00,573,weatherlink.com 1.10,2013-07-05 20:00:00,
2013-07-05 16:15:00,78.3,68.0,30.07,West,269,0.0,2.0,70,0.00,,,0.00,373,weatherlink.com 1.10,2013-07-05 20:15:00,
2013-07-05 16:30:00,78.3,68.0,30.07,WSW,257,0.0,4.0,70,0.00,,,0.00,445,weatherlink.com 1.10,2013-07-05 20:30:00,
2013-07-05 16:45:00,79.8,69.0,30.07,WSW,240,0.0,3.0,69,0.00,,,0.00,874,weatherlink.com 1.10,2013-07-05 20:45:00,
2013-07-05 17:00:00,80.3,70.0,30.06,SSW,196,0.0,4.0,70,0.00,,,0.00,371,weatherlink.com 1.10,2013-07-05 21:00:00,
2013-07-05 17:15:00,79.4,69.0,30.06,SSW,196,0.0,4.0,70,0.00,,,0.00,294,weatherlink.com 1.10,2013-07-05 21:15:00,
2013-07-05 17:30:00,79.5,69.0,30.05,SSW,210,1.0,3.0,71,0.00,,,0.00,714,weatherlink.com 1.10,2013-07-05 21:30:00,
2013-07-05 17:45:00,80.1,69.0,30.05,SSW,203,0.0,5.0,69,0.00,,,0.00,527,weatherlink.com 1.10,2013-07-05 21:45:00,
2013-07-05 18:00:00,79.7,70.0,30.04,SSW,192,0.0,0.0,71,0.00,,,0.00,302,weatherlink.com 1.10,2013-07-05 22:00:00,
2013-07-05 18:15:00,79.4,70.0,30.04,SW,215,0.0,4.0,72,0.00,,,0.00,216,weatherlink.com 1.10,2013-07-05 22:15:00,
2013-07-05 18:31:00,78.7,69.0,30.04,SW,215,0.0,0.0,72,0.00,,,0.00,272,weatherlink.com 1.10,2013-07-05 22:31:00,
2013-07-05 18:46:00,78.8,69.0,30.04,SSW,198,0.0,1.0,72,0.00,,,0.00,246,weatherlink.com 1.10,2013-07-05 22:46:00,
2013-07-05 19:01:00,78.0,69.0,30.04,WSW,239,0.0,4.0,74,0.00,,,0.00,156,weatherlink.com 1.10,2013-07-05 23:01:00,
2013-07-05 19:16:00,77.2,69.0,30.03,WSW,239,0.0,0.0,75,0.00,,,0.00,121,weatherlink.com 1.10,2013-07-05 23:16:00,
2013-07-05 19:31:00,77.3,70.0,30.03,WSW,239,0.0,0.0,78,0.00,,,0.00,278,weatherlink.com 1.10,2013-07-05 23:31:00,
2013-07-05 19:46:00,77.5,71.0,30.04,WSW,239,0.0,0.0,79,0.00,,,0.00,176,weatherlink.com 1.10,2013-07-05 23:46:00,
2013-07-05 20:01:00,77.2,70.0,30.04,SW,226,0.0,4.0,78,0.00,,,0.00,113,weatherlink.com 1.10,2013-07-06 00:01:00,
2013-07-05 20:16:00,76.7,70.0,30.04,SW,232,0.0,0.0,79,0.00,,,0.00,81,weatherlink.com 1.10,2013-07-06 00:16:00,
2013-07-05 20:31:00,75.9,70.0,30.04,SW,232,0.0,0.0,81,0.00,,,0.00,51,weatherlink.com 1.10,2013-07-06 00:31:00,
2013-07-05 20:46:00,75.1,69.0,30.04,SW,232,0.0,0.0,81,0.00,,,0.00,25,weatherlink.com 1.10,2013-07-06 00:46:00,
2013-07-05 21:01:00,74.3,69.0,30.04,SW,232,0.0,0.0,83,0.00,,,0.00,9,weatherlink.com 1.10,2013-07-06 01:01:00,
2013-07-05 21:16:00,73.4,68.0,30.04,SW,232,0.0,0.0,84,0.00,,,0.00,0,weatherlink.com 1.10,2013-07-06 01:16:00,
2013-07-05 21:31:00,72.6,68.0,30.04,SW,232,0.0,0.0,86,0.00,,,0.00,0,weatherlink.com 1.10,2013-07-06 01:31:00,
2013-07-05 21:46:00,71.9,68.0,30.04,SW,232,0.0,0.0,87,0.00,,,0.00,0,weatherlink.com 1.10,2013-07-06 01:46:00,
2013-07-05 22:01:00,71.3,68.0,30.04,SW,232,0.0,0.0,88,0.00,,,0.00,0,weatherlink.com 1.10,2013-07-06 02:01:00,
2013-07-05 22:16:00,70.9,68.0,30.05,SW,232,0.0,0.0,89,0.00,,,0.00,0,weatherlink.com 1.10,2013-07-06 02:16:00,
2013-07-05 22:31:00,70.6,68.0,30.05,SW,232,0.0,0.0,90,0.00,,,0.00,0,weatherlink.com 1.10,2013-07-06 02:31:00,
2013-07-05 22:46:00,70.4,68.0,30.06,SW,232,0.0,0.0,91,0.00,,,0.00,0,weatherlink.com 1.10,2013-07-06 02:46:00,
2013-07-05 23:01:00,70.4,68.0,30.07,SW,232,0.0,0.0,91,0.00,,,0.00,0,weatherlink.com 1.10,2013-07-06 03:01:00,
2013-07-05 23:16:00,70.3,68.0,30.07,SW,232,0.0,0.0,91,0.00,,,0.00,0,weatherlink.com 1.10,2013-07-06 03:16:00,
2013-07-05 23:31:00,70.2,68.0,30.07,SW,232,0.0,0.0,91,0.00,,,0.00,0,weatherlink.com 1.10,2013-07-06 03:31:00,
2013-07-05 23:46:00,70.0,67.0,30.07,SW,232,0.0,0.0,91,0.00,,,0.00,0,weatherlink.com 1.10,2013-07-06 03:46:00,